Terminal Aerodrome Forecast
Issued by NWS Milwaukee/Sullivan, WI

Home | Current Version | Previous Version | Text Only | Print | Product List | Glossary On
Versions: 1 2 3 4 5 6 7 8 9 10 11 12 13 14 15 16 17 18 19 20 21 22 23 24 25 26 27 28 29 30 31 32 33 34 35 36 37 38 39 40 41 42 43 44 45 46 47 48 49 50
000
FTUS43 KMKX 032340
TAFMKE
TAF
KMKE 032340Z 0400/0506 VRB03KT P6SM OVC035
     FM041400 18004KT 3SM -SN OVC035
     FM041600 17006KT 1 1/2SM -SN OVC015
     FM041800 17006KT 1SM -SN OVC008
     FM050000 20007KT 5SM -SN OVC008
     FM050200 21007KT P6SM OVC010
     FM050500 24008KT P6SM BKN015=

USA.gov is the U.S. government's official web portal to all federal, state and local government web resources and services.